Time;durP1;ratioP1;P1;durP2;ratioP2;P2;SDS_P1;SDS_P2;PMS_P1;PMS_P2;Temp;Humidity;BMP_temperature;BMP_pressure;BME280_temperature;BME280_humidity;BME280_pressure;Samples;Min_cycle;Max_cycle;Signal;HPM_P1;HPM_P2
2023/01/15 00:00:45;;;;;;;1.48;0.73;;;;;;;0.45;81.26;93949.03;4978433;28;20068;-64
2023/01/15 00:03:11;;;;;;;0.93;0.60;;;;;;;0.66;80.37;93960.09;4980190;28;20097;-64
2023/01/15 00:05:36;;;;;;;0.60;0.60;;;;;;;0.30;81.25;93963.69;4979745;28;20078;-64
2023/01/15 00:08:01;;;;;;;1.75;0.60;;;;;;;-0.28;83.31;93974.56;4979586;28;20090;-63
2023/01/15 00:10:27;;;;;;;1.27;0.57;;;;;;;-0.01;82.38;93944.03;4980663;28;20099;-63
2023/01/15 00:12:52;;;;;;;0.80;0.80;;;;;;;-0.02;82.00;93957.25;4980492;28;20067;-64
2023/01/15 00:15:18;;;;;;;1.38;0.80;;;;;;;-0.26;82.15;93956.13;4983534;28;20140;-63
2023/01/15 00:17:43;;;;;;;0.50;0.50;;;;;;;0.00;81.69;93953.50;4980070;28;20066;-63
2023/01/15 00:20:09;;;;;;;1.38;0.90;;;;;;;-0.38;82.49;93971.19;4979928;28;20050;-64
2023/01/15 00:22:35;;;;;;;1.15;0.60;;;;;;;-0.21;82.19;93964.31;4977010;28;20606;-63
2023/01/15 00:27:44;;;;;;;1.98;0.80;;;;;;;-0.31;82.04;93974.88;4979585;28;20092;-63
2023/01/15 00:30:11;;;;;;;0.73;0.68;;;;;;;-0.07;80.74;93955.94;4979057;28;20246;-64
2023/01/15 00:32:38;;;;;;;1.90;0.63;;;;;;;-0.72;82.23;93957.00;4981868;28;20064;-63
2023/01/15 00:35:03;;;;;;;2.10;0.82;;;;;;;-0.86;82.91;93959.19;4979983;28;20580;-63
2023/01/15 00:37:29;;;;;;;1.00;0.90;;;;;;;-1.27;84.53;93975.19;4979547;28;20167;-62
2023/01/15 00:39:54;;;;;;;1.15;0.80;;;;;;;-1.56;85.33;93968.28;4980486;28;20587;-62
2023/01/15 00:42:20;;;;;;;2.10;1.20;;;;;;;-1.95;86.19;94012.75;4981497;28;20420;-62
2023/01/15 00:44:45;;;;;;;0.70;0.70;;;;;;;-1.98;85.05;93987.78;4983954;28;20728;-62
2023/01/15 00:47:13;;;;;;;0.55;0.50;;;;;;;-1.93;84.79;94013.47;4970524;28;20096;-62
2023/01/15 00:49:40;;;;;;;1.75;0.82;;;;;;;-1.86;83.44;94012.75;4970901;28;20397;-62
2023/01/15 00:52:05;;;;;;;3.15;0.90;;;;;;;-2.09;84.75;93998.38;4984683;28;20105;-62
2023/01/15 00:54:32;;;;;;;0.98;0.50;;;;;;;-1.88;83.67;94009.47;4983676;28;20654;-62
2023/01/15 00:56:57;;;;;;;3.05;0.88;;;;;;;-2.15;84.32;94018.00;4983659;28;20091;-63
2023/01/15 00:59:23;;;;;;;0.82;0.73;;;;;;;-1.91;83.39;94011.50;4984042;28;20119;-62
2023/01/15 01:01:48;;;;;;;3.00;0.63;;;;;;;-2.11;83.50;94021.97;4981594;28;20070;-62
2023/01/15 01:04:14;;;;;;;0.50;0.50;;;;;;;-2.10;83.41;94008.00;4983533;28;20079;-62
2023/01/15 01:06:39;;;;;;;1.10;0.65;;;;;;;-2.46;83.85;94039.81;4983169;28;20128;-62
2023/01/15 01:09:04;;;;;;;4.30;0.50;;;;;;;-2.29;83.46;94037.50;4983243;28;20079;-62
2023/01/15 01:11:33;;;;;;;0.65;0.65;;;;;;;-2.64;84.28;94022.22;4982691;28;20107;-62
2023/01/15 01:13:59;;;;;;;0.80;0.68;;;;;;;-3.04;84.59;94057.81;4983033;28;20098;-62
2023/01/15 01:16:25;;;;;;;0.45;0.43;;;;;;;-2.80;84.08;94020.16;4985808;28;20085;-62
2023/01/15 01:18:50;;;;;;;1.27;0.65;;;;;;;-2.61;82.43;94034.19;4986191;28;20094;-62
2023/01/15 01:21:16;;;;;;;0.57;0.57;;;;;;;-2.97;82.92;94026.84;4982453;28;20066;-62
2023/01/15 01:23:42;;;;;;;0.57;0.50;;;;;;;-3.22;84.53;94038.56;4981115;28;20126;-62
2023/01/15 01:26:07;;;;;;;1.20;0.60;;;;;;;-3.03;83.75;94020.38;4968087;28;20100;-62
2023/01/15 01:28:32;;;;;;;0.88;0.40;;;;;;;-2.82;82.80;94026.47;4983382;28;20085;-62
2023/01/15 01:30:58;;;;;;;0.47;0.40;;;;;;;-2.96;83.16;94030.28;4981132;28;20158;-61
2023/01/15 01:33:23;;;;;;;1.00;0.70;;;;;;;-2.95;82.27;94044.94;4982305;28;20098;-62
2023/01/15 01:35:49;;;;;;;0.98;0.60;;;;;;;-3.48;84.60;94054.59;4981902;28;20103;-62
2023/01/15 01:38:14;;;;;;;0.60;0.50;;;;;;;-3.70;85.35;94053.81;4981895;28;20554;-61
2023/01/15 01:40:40;;;;;;;2.38;0.65;;;;;;;-3.65;85.82;94062.06;4983425;28;20614;-61
2023/01/15 01:43:24;;;;;;;0.50;0.50;;;;;;;-3.40;84.02;94066.03;4982132;28;20550;-62
2023/01/15 01:45:49;;;;;;;0.65;0.40;;;;;;;-2.94;82.58;94064.81;4971054;28;20092;-62
2023/01/15 01:48:16;;;;;;;0.85;0.73;;;;;;;-3.22;83.29;94057.63;4985637;28;20086;-62
2023/01/15 01:50:41;;;;;;;1.23;0.50;;;;;;;-3.27;83.95;94055.41;4965460;28;20156;-61
2023/01/15 01:53:13;;;;;;;2.28;0.50;;;;;;;-3.12;83.11;94068.06;4948830;28;20083;-62
2023/01/15 01:55:38;;;;;;;0.65;0.47;;;;;;;-2.99;81.39;94077.44;4968443;28;20486;-61
2023/01/15 01:58:05;;;;;;;0.30;0.30;;;;;;;-2.80;80.61;94055.81;4982523;28;20034;-61
2023/01/15 02:00:31;;;;;;;0.63;0.50;;;;;;;-3.04;81.82;94085.63;4949569;28;20026;-62
2023/01/15 02:02:57;;;;;;;0.80;0.47;;;;;;;-2.84;80.00;94067.44;4969795;28;20049;-64
2023/01/15 02:05:30;;;;;;;0.80;0.47;;;;;;;-3.22;81.89;94083.66;4982925;28;20034;-63
2023/01/15 02:07:55;;;;;;;1.45;0.70;;;;;;;-3.46;83.01;94081.34;4972880;28;20329;-63
2023/01/15 02:10:21;;;;;;;0.70;0.43;;;;;;;-3.64;82.87;94076.69;4981596;28;20245;-62
2023/01/15 02:13:08;;;;;;;0.77;0.60;;;;;;;-3.70;83.28;94082.44;4980448;28;20311;-63
2023/01/15 02:15:39;;;;;;;0.38;0.30;;;;;;;-3.64;83.17;94079.31;4981881;28;20033;-63
2023/01/15 02:18:06;;;;;;;0.55;0.38;;;;;;;-3.70;82.48;94091.03;4983422;28;20060;-62
2023/01/15 02:20:39;;;;;;;1.20;0.60;;;;;;;-3.80;82.45;94064.97;4982130;28;20026;-62
2023/01/15 02:23:29;;;;;;;0.40;0.40;;;;;;;-3.73;81.78;94054.06;4965552;28;20038;-63
2023/01/15 02:26:12;;;;;;;0.32;0.32;;;;;;;-3.77;81.63;94048.28;4981297;28;20404;-62
2023/01/15 02:28:39;;;;;;;0.85;0.50;;;;;;;-3.30;79.69;94047.00;4966292;28;20946;-63
2023/01/15 02:31:33;;;;;;;0.93;0.38;;;;;;;-3.69;79.36;94058.91;4965371;28;20030;-64
2023/01/15 02:34:02;;;;;;;1.45;0.50;;;;;;;-3.74;80.39;94068.03;4980338;28;20741;-62
2023/01/15 02:36:29;;;;;;;1.10;0.60;;;;;;;-4.02;80.88;94067.69;4963578;28;20067;-61
2023/01/15 02:38:55;;;;;;;1.52;0.40;;;;;;;-4.18;80.68;94063.75;4950510;28;20606;-63
2023/01/15 02:41:25;;;;;;;1.35;0.52;;;;;;;-3.96;79.95;94059.41;4950363;28;20037;-63
2023/01/15 02:43:52;;;;;;;0.95;0.50;;;;;;;-3.80;79.36;94051.16;4951260;28;20038;-62
2023/01/15 02:46:19;;;;;;;0.98;0.50;;;;;;;-3.94;79.87;94060.09;4981335;28;20049;-64
2023/01/15 02:48:46;;;;;;;0.88;0.40;;;;;;;-3.59;79.18;94048.53;4954234;28;20030;-64
2023/01/15 02:51:14;;;;;;;0.55;0.22;;;;;;;-3.46;78.90;94053.50;4950501;28;20129;-63
2023/01/15 02:53:41;;;;;;;1.60;0.40;;;;;;;-3.22;77.66;94051.56;4949132;28;20307;-63
2023/01/15 02:56:14;;;;;;;0.20;0.20;;;;;;;-3.11;76.98;94056.69;4966663;28;20034;-63
2023/01/15 02:58:40;;;;;;;3.20;0.40;;;;;;;-3.44;78.42;94058.59;4964543;28;20034;-63
2023/01/15 03:01:10;;;;;;;0.38;0.38;;;;;;;-3.37;77.50;94053.72;4981633;28;20105;-63
2023/01/15 03:03:47;;;;;;;1.20;0.50;;;;;;;-3.01;77.52;94049.75;4964779;28;20062;-63
2023/01/15 03:06:26;;;;;;;4.97;0.80;;;;;;;-3.59;78.43;94064.16;4979929;28;20206;-63
2023/01/15 03:08:52;;;;;;;0.70;0.55;;;;;;;-3.60;79.74;94057.28;4981182;28;20056;-64
2023/01/15 03:11:18;;;;;;;1.55;0.75;;;;;;;-3.55;79.47;94054.28;4980190;28;20051;-62
2023/01/15 03:13:53;;;;;;;2.38;0.80;;;;;;;-3.70;79.41;94052.03;4964264;28;20018;-63
2023/01/15 03:16:35;;;;;;;1.27;0.65;;;;;;;-3.53;78.42;94060.22;4964652;28;20130;-62
2023/01/15 03:19:26;;;;;;;1.35;0.80;;;;;;;-3.72;79.56;94053.94;4965253;28;20034;-64
2023/01/15 03:22:00;;;;;;;1.70;0.80;;;;;;;-4.07;80.65;94049.88;4965060;28;20070;-63
2023/01/15 03:24:31;;;;;;;1.23;0.60;;;;;;;-3.84;79.82;94037.56;4966898;28;20475;-64
2023/01/15 03:26:56;;;;;;;0.60;0.60;;;;;;;-3.74;79.02;94055.03;4980247;28;20503;-63
2023/01/15 03:29:23;;;;;;;0.55;0.45;;;;;;;-3.53;78.24;94031.59;4981100;28;20072;-63
2023/01/15 03:31:48;;;;;;;0.45;0.30;;;;;;;-3.97;80.20;94058.56;4950765;28;20097;-64
2023/01/15 03:34:14;;;;;;;2.70;0.40;;;;;;;-3.29;77.68;94040.88;4982638;28;20411;-63
2023/01/15 03:36:39;;;;;;;1.75;0.75;;;;;;;-3.93;78.86;94059.16;4980901;28;20032;-63
2023/01/15 03:39:05;;;;;;;1.20;0.40;;;;;;;-3.88;79.45;94048.38;4966015;28;20038;-63
2023/01/15 03:41:54;;;;;;;3.17;0.63;;;;;;;-3.53;78.53;94047.19;4964798;28;20030;-64
2023/01/15 03:44:23;;;;;;;0.43;0.43;;;;;;;-3.40;77.76;94041.75;4981248;28;20042;-62
2023/01/15 03:46:53;;;;;;;0.93;0.45;;;;;;;-3.33;76.09;94048.09;4967425;28;20121;-64
2023/01/15 03:49:54;;;;;;;0.45;0.32;;;;;;;-2.97;75.73;94041.66;4967939;28;20040;-63
2023/01/15 03:52:46;;;;;;;0.88;0.60;;;;;;;-3.73;77.81;94054.91;4975892;28;20042;-63
2023/01/15 03:55:15;;;;;;;2.65;0.70;;;;;;;-3.37;77.09;94043.31;4979819;28;20060;-63
2023/01/15 03:57:44;;;;;;;0.45;0.30;;;;;;;-2.97;76.09;94044.25;4981260;28;20018;-63
2023/01/15 04:00:14;;;;;;;1.08;0.60;;;;;;;-2.99;74.87;94048.78;4953324;28;20125;-63
2023/01/15 04:02:39;;;;;;;1.58;0.50;;;;;;;-2.58;71.96;94038.31;4966171;28;20049;-63
2023/01/15 04:05:05;;;;;;;0.82;0.30;;;;;;;-2.60;73.99;94045.44;4950094;28;20022;-63
2023/01/15 04:07:30;;;;;;;0.35;0.35;;;;;;;-2.27;71.89;94043.41;4981280;28;20049;-63
2023/01/15 04:09:56;;;;;;;0.70;0.57;;;;;;;-2.72;72.19;94042.94;4951039;28;20038;-64
2023/01/15 04:12:21;;;;;;;1.08;0.40;;;;;;;-2.55;71.89;94049.28;4968884;28;20027;-65
2023/01/15 04:14:47;;;;;;;1.20;0.65;;;;;;;-3.34;75.23;94056.88;4980219;28;20038;-63
2023/01/15 04:17:12;;;;;;;0.77;0.60;;;;;;;-3.29;73.88;94069.50;4981810;28;20092;-64
2023/01/15 04:19:37;;;;;;;0.85;0.60;;;;;;;-2.86;73.49;94054.56;4985274;28;20050;-63
2023/01/15 04:22:03;;;;;;;0.32;0.32;;;;;;;-3.42;75.84;94059.31;4983949;28;20038;-64
2023/01/15 04:24:28;;;;;;;2.83;0.77;;;;;;;-3.97;77.13;94062.94;4984274;28;20050;-64
2023/01/15 04:26:54;;;;;;;1.65;0.60;;;;;;;-4.22;77.96;94076.19;4984512;28;20619;-64
2023/01/15 04:29:19;;;;;;;4.90;1.08;;;;;;;-4.48;79.25;94071.28;4984548;28;20083;-65
2023/01/15 04:31:45;;;;;;;0.82;0.52;;;;;;;-3.98;77.47;94075.13;4984438;28;20099;-63
2023/01/15 04:34:10;;;;;;;1.27;0.63;;;;;;;-4.05;77.85;94082.59;4981836;28;20106;-64
2023/01/15 04:36:35;;;;;;;3.05;0.73;;;;;;;-3.60;76.62;94067.69;4985121;28;20367;-63
2023/01/15 04:39:02;;;;;;;2.17;0.60;;;;;;;-3.41;75.69;94068.75;4983209;28;20140;-64
2023/01/15 04:44:12;;;;;;;0.73;0.55;;;;;;;-3.49;74.94;94055.56;4982496;28;20114;-64
2023/01/15 04:46:43;;;;;;;1.75;0.82;;;;;;;-3.43;75.12;94074.06;4984193;28;20344;-63
2023/01/15 04:49:13;;;;;;;1.27;0.40;;;;;;;-3.76;76.22;94075.13;4984028;28;20563;-65
2023/01/15 04:51:38;;;;;;;3.03;0.63;;;;;;;-3.56;75.54;94063.06;4985031;28;20115;-64
2023/01/15 04:54:05;;;;;;;3.92;0.68;;;;;;;-3.61;75.78;94045.22;4983595;28;20133;-63
2023/01/15 04:56:30;;;;;;;2.22;0.73;;;;;;;-3.39;75.02;94046.03;4967674;28;20279;-65
2023/01/15 04:58:59;;;;;;;0.28;0.28;;;;;;;-3.49;75.55;94071.19;4971383;28;20120;-64
2023/01/15 05:01:24;;;;;;;0.35;0.35;;;;;;;-3.10;74.85;94062.69;4983731;28;20084;-64
2023/01/15 05:03:50;;;;;;;0.70;0.30;;;;;;;-2.93;72.51;94071.66;4984516;28;20169;-63
2023/01/15 05:06:17;;;;;;;4.60;0.75;;;;;;;-2.37;72.15;94056.44;4983667;28;20114;-63
2023/01/15 05:08:42;;;;;;;2.75;0.70;;;;;;;-1.91;70.67;94048.03;4983607;28;20555;-64
2023/01/15 05:11:08;;;;;;;3.10;0.75;;;;;;;-1.42;69.50;94029.69;4983743;28;20453;-64
2023/01/15 05:13:33;;;;;;;1.40;0.75;;;;;;;-1.32;67.85;94032.25;4983237;28;20111;-65
2023/01/15 05:16:11;;;;;;;2.30;0.80;;;;;;;-1.08;68.78;94023.91;4983022;28;20096;-64
2023/01/15 05:18:36;;;;;;;1.83;0.77;;;;;;;-0.79;65.21;94026.53;4982656;28;20683;-64
2023/01/15 05:21:02;;;;;;;2.78;0.80;;;;;;;-1.32;67.46;94034.88;4982362;28;20106;-64
2023/01/15 05:23:27;;;;;;;5.03;1.95;;;;;;;-1.06;65.50;94026.38;4983856;28;20100;-64
2023/01/15 05:25:53;;;;;;;6.03;2.75;;;;;;;-0.35;66.39;94026.66;4982467;28;20114;-63
2023/01/15 05:28:18;;;;;;;2.53;0.85;;;;;;;-0.41;61.31;94029.88;4983259;28;20067;-64
2023/01/15 05:30:43;;;;;;;3.22;0.90;;;;;;;-0.50;62.72;94039.44;4982303;28;20092;-64
2023/01/15 05:33:09;;;;;;;4.15;1.40;;;;;;;-0.75;65.12;94041.78;4984059;28;20086;-65
2023/01/15 05:35:34;;;;;;;1.33;0.50;;;;;;;-0.22;63.34;94041.16;4983997;28;20092;-64
2023/01/15 05:38:00;;;;;;;2.30;0.63;;;;;;;-0.64;62.34;94047.78;4983730;28;20096;-64
2023/01/15 05:40:25;;;;;;;7.60;1.00;;;;;;;-1.61;64.29;94044.44;4983090;28;20108;-65
2023/01/15 05:42:50;;;;;;;3.45;0.50;;;;;;;-0.63;64.27;94044.19;4983286;28;20100;-64
2023/01/15 05:45:16;;;;;;;1.42;0.40;;;;;;;-0.56;64.57;94040.03;4982823;28;20069;-65
2023/01/15 05:47:41;;;;;;;1.83;0.60;;;;;;;-1.03;67.31;94043.53;4983085;28;20579;-65
2023/01/15 05:50:07;;;;;;;1.17;0.68;;;;;;;-1.23;65.33;94044.44;4981610;28;20433;-64
2023/01/15 05:52:33;;;;;;;0.82;0.52;;;;;;;-1.14;66.53;94063.66;4984049;28;20081;-64
2023/01/15 05:54:58;;;;;;;6.72;0.95;;;;;;;-1.41;68.07;94052.22;4982821;28;20132;-64
2023/01/15 05:57:24;;;;;;;2.42;0.57;;;;;;;-2.15;70.42;94062.34;4983235;28;20097;-64
2023/01/15 05:59:49;;;;;;;1.67;0.50;;;;;;;-2.09;67.53;94068.78;4982351;28;20102;-64
2023/01/15 06:02:15;;;;;;;0.47;0.47;;;;;;;-1.18;68.11;94071.94;4981291;28;20147;-64
2023/01/15 06:04:40;;;;;;;1.85;0.85;;;;;;;-1.83;68.15;94068.22;4983276;28;20130;-64
2023/01/15 06:07:05;;;;;;;2.92;0.55;;;;;;;-1.91;68.88;94079.34;4982174;28;20101;-64
2023/01/15 06:09:31;;;;;;;3.50;0.75;;;;;;;-2.18;68.48;94078.25;4983055;28;20091;-64
2023/01/15 06:11:56;;;;;;;2.58;0.75;;;;;;;-1.83;69.15;94063.84;4981697;28;20114;-64
2023/01/15 06:14:22;;;;;;;5.60;0.70;;;;;;;-1.84;68.77;94064.78;4983007;28;20512;-64
2023/01/15 06:16:47;;;;;;;3.67;0.93;;;;;;;-1.57;69.18;94073.69;4981556;28;20197;-65
2023/01/15 06:19:13;;;;;;;1.80;0.68;;;;;;;-2.26;71.23;94081.56;4981928;28;20101;-64
2023/01/15 06:21:38;;;;;;;1.77;0.73;;;;;;;-2.13;69.46;94069.06;4980777;28;20601;-64
2023/01/15 06:24:04;;;;;;;1.95;0.65;;;;;;;-1.64;68.15;94070.81;4982365;28;20065;-64
2023/01/15 06:26:29;;;;;;;1.40;0.70;;;;;;;-1.25;67.94;94072.47;4982246;28;20112;-64
2023/01/15 06:28:55;;;;;;;1.70;0.57;;;;;;;-1.39;67.22;94067.75;4981401;28;21809;-64
2023/01/15 06:31:21;;;;;;;3.15;0.60;;;;;;;-2.14;69.83;94082.25;4981974;28;20098;-65
2023/01/15 06:33:46;;;;;;;4.93;0.93;;;;;;;-2.18;66.68;94080.84;4982601;28;20073;-65
2023/01/15 06:36:13;;;;;;;1.67;0.55;;;;;;;-1.74;68.11;94081.25;4983999;28;20079;-65
2023/01/15 06:38:39;;;;;;;2.03;0.52;;;;;;;-1.56;68.54;94074.50;4981923;28;20607;-64
2023/01/15 06:47:19;;;;;;;1.90;0.60;;;;;;;-1.42;65.10;94073.25;4982207;28;20334;-64
2023/01/15 06:49:27;;;;;;;0.90;0.50;;;;;;;-2.37;70.88;94080.72;4972640;28;20447;-64
2023/01/15 06:51:53;;;;;;;3.67;0.80;;;;;;;-2.22;69.39;94077.72;4984384;28;20468;-64
2023/01/15 06:54:18;;;;;;;1.67;0.63;;;;;;;-2.48;69.62;94091.25;4982280;28;20185;-65
2023/01/15 06:56:43;;;;;;;1.48;0.60;;;;;;;-2.08;69.63;94081.69;4981311;28;20142;-64
2023/01/15 06:59:09;;;;;;;2.22;0.82;;;;;;;-2.41;69.58;94087.16;4981231;28;20459;-65
2023/01/15 07:01:34;;;;;;;2.75;0.73;;;;;;;-2.52;70.91;94085.50;4980219;28;20082;-64
2023/01/15 07:04:00;;;;;;;1.67;0.63;;;;;;;-2.56;71.14;94089.34;4982121;28;20071;-64
2023/01/15 07:06:25;;;;;;;1.13;0.43;;;;;;;-2.60;71.39;94100.16;4980225;28;20095;-65
2023/01/15 07:08:51;;;;;;;1.58;0.70;;;;;;;-2.30;70.84;94101.88;4981085;28;20073;-64
2023/01/15 07:11:17;;;;;;;1.15;0.60;;;;;;;-2.52;71.83;94095.09;4965877;28;20101;-64
2023/01/15 07:13:42;;;;;;;0.70;0.52;;;;;;;-2.48;70.15;94090.44;4980316;28;20071;-64
2023/01/15 07:16:25;;;;;;;0.45;0.43;;;;;;;-2.67;70.95;94097.25;4980270;28;20070;-64
2023/01/15 07:18:51;;;;;;;4.95;3.28;;;;;;;-3.34;71.22;94116.72;4981009;28;20104;-64
2023/01/15 07:21:16;;;;;;;0.50;0.50;;;;;;;-3.02;71.43;94117.59;4979878;28;20080;-65
2023/01/15 07:23:42;;;;;;;1.27;0.47;;;;;;;-2.59;70.94;94109.59;4979879;28;20096;-64
2023/01/15 07:26:07;;;;;;;1.40;0.45;;;;;;;-2.73;69.92;94119.47;4981133;28;20086;-64
2023/01/15 07:28:32;;;;;;;0.40;0.40;;;;;;;-2.66;70.82;94124.97;4980138;28;20068;-64
2023/01/15 07:30:58;;;;;;;1.40;0.43;;;;;;;-2.80;70.19;94139.19;4980645;28;20329;-65
2023/01/15 07:33:23;;;;;;;0.30;0.30;;;;;;;-3.03;71.33;94149.75;4981420;28;20089;-65
2023/01/15 07:35:49;;;;;;;0.50;0.40;;;;;;;-2.92;69.84;94152.28;4980701;28;20858;-64
2023/01/15 07:38:14;;;;;;;1.92;0.38;;;;;;;-2.49;68.18;94139.13;4980462;28;20169;-65
2023/01/15 07:40:40;;;;;;;2.22;0.43;;;;;;;-2.16;68.41;94139.75;4980639;28;20098;-64
2023/01/15 07:51:17;;;;;;;0.95;0.40;;;;;;;-1.42;65.89;94143.72;4979159;28;20791;-64
2023/01/15 07:53:43;;;;;;;0.20;0.20;;;;;;;-1.32;64.39;94149.78;4981072;28;20088;-65
2023/01/15 07:56:08;;;;;;;0.40;0.40;;;;;;;-1.18;64.61;94143.28;4980955;28;20074;-64
2023/01/15 07:58:34;;;;;;;0.40;0.40;;;;;;;-1.05;63.55;94147.38;4980156;28;20617;-65
2023/01/15 08:00:59;;;;;;;0.25;0.25;;;;;;;-2.07;64.63;94166.78;4979121;28;20061;-65
2023/01/15 08:03:24;;;;;;;0.65;0.45;;;;;;;-2.03;65.49;94156.94;4979641;28;20195;-65
2023/01/15 08:05:50;;;;;;;0.40;0.40;;;;;;;-1.48;66.76;94150.34;4979964;28;20368;-65
2023/01/15 08:08:18;;;;;;;0.68;0.20;;;;;;;-2.13;68.26;94159.53;4980441;28;20070;-65
2023/01/15 08:16:11;;;;;;;0.52;0.32;;;;;;;-3.55;74.68;94160.97;4981580;28;20205;-65
2023/01/15 08:18:37;;;;;;;2.30;0.50;;;;;;;-2.90;72.27;94157.38;4980014;28;20715;-65
2023/01/15 08:21:03;;;;;;;0.52;0.50;;;;;;;-2.60;70.85;94171.34;4980680;28;20065;-64
2023/01/15 08:23:28;;;;;;;0.63;0.40;;;;;;;-2.92;71.86;94156.69;4980106;28;20150;-65
2023/01/15 08:25:53;;;;;;;0.52;0.52;;;;;;;-2.75;71.92;94156.06;4980870;28;20123;-64
2023/01/15 08:28:19;;;;;;;0.20;0.20;;;;;;;-2.38;69.59;94157.28;4980322;28;20465;-65
2023/01/15 08:30:44;;;;;;;0.52;0.30;;;;;;;-2.33;70.57;94162.09;4980537;28;20095;-65
2023/01/15 08:33:10;;;;;;;0.32;0.32;;;;;;;-2.59;69.53;94165.16;4979911;28;20123;-64
2023/01/15 08:35:35;;;;;;;0.38;0.38;;;;;;;-2.24;69.68;94161.28;4970282;28;20463;-65
2023/01/15 08:38:06;;;;;;;0.30;0.30;;;;;;;-2.29;69.24;94168.69;4977554;28;20099;-64
2023/01/15 08:40:34;;;;;;;1.27;0.70;;;;;;;-1.65;66.72;94160.53;4977103;28;20157;-65
2023/01/15 08:42:59;;;;;;;0.90;0.70;;;;;;;-1.88;67.38;94175.59;4979200;28;20205;-64
2023/01/15 08:45:25;;;;;;;1.10;0.77;;;;;;;-1.86;67.77;94176.31;4979172;28;20077;-65
2023/01/15 08:47:53;;;;;;;0.80;0.80;;;;;;;-1.44;67.21;94182.19;4980940;28;20092;-65
2023/01/15 08:50:19;;;;;;;0.40;0.40;;;;;;;-1.31;66.54;94164.47;4978166;28;20145;-64
2023/01/15 08:52:44;;;;;;;0.68;0.63;;;;;;;-2.15;66.78;94169.25;4980336;28;20491;-65
2023/01/15 08:55:10;;;;;;;0.45;0.40;;;;;;;-1.60;67.89;94166.16;4979256;28;20269;-65
2023/01/15 08:57:36;;;;;;;1.00;0.88;;;;;;;-1.61;68.77;94171.50;4981036;28;20062;-64
2023/01/15 09:00:02;;;;;;;0.73;0.63;;;;;;;-1.23;67.85;94168.97;4978208;28;20484;-64
2023/01/15 09:02:28;;;;;;;1.77;0.50;;;;;;;-2.01;67.44;94183.69;4964919;28;20077;-65
2023/01/15 09:04:54;;;;;;;0.82;0.57;;;;;;;-1.35;67.67;94182.19;4967971;28;20063;-64
2023/01/15 09:07:19;;;;;;;0.40;0.40;;;;;;;-1.92;67.65;94206.38;4983828;28;20100;-65
2023/01/15 09:09:44;;;;;;;0.98;0.50;;;;;;;-2.02;69.34;94201.16;4984227;28;20413;-65
2023/01/15 09:12:10;;;;;;;0.60;0.60;;;;;;;-2.17;70.60;94185.03;4983920;28;20336;-64
2023/01/15 09:14:35;;;;;;;0.47;0.30;;;;;;;-1.53;67.28;94178.66;4984238;28;20541;-65
2023/01/15 09:17:01;;;;;;;0.52;0.40;;;;;;;-1.48;67.33;94171.22;4983788;28;20067;-64
2023/01/15 09:19:26;;;;;;;0.20;0.20;;;;;;;-1.11;67.23;94180.09;4984783;28;20098;-64
2023/01/15 09:21:51;;;;;;;2.10;0.82;;;;;;;-1.62;66.45;94175.06;4982427;28;20064;-65
2023/01/15 09:24:17;;;;;;;0.43;0.43;;;;;;;-1.93;69.89;94186.44;4986290;28;20139;-64
2023/01/15 09:26:42;;;;;;;1.90;0.93;;;;;;;-2.20;70.69;94189.72;4982777;28;20077;-65
2023/01/15 09:29:08;;;;;;;1.52;0.93;;;;;;;-1.53;68.93;94184.69;4983114;28;20066;-65
2023/01/15 09:31:34;;;;;;;0.80;0.60;;;;;;;-1.49;68.06;94180.84;4982515;28;20090;-65
2023/01/15 09:33:59;;;;;;;1.88;0.93;;;;;;;-2.57;69.57;94202.38;4983494;28;20401;-65
2023/01/15 09:36:30;;;;;;;4.47;0.80;;;;;;;-1.68;70.15;94194.72;4982348;28;20332;-64
2023/01/15 09:38:56;;;;;;;3.35;0.77;;;;;;;-1.86;69.01;94205.00;4979149;28;20157;-65
2023/01/15 09:44:15;;;;;;;1.95;0.95;;;;;;;-2.70;71.71;94209.56;4982325;28;20231;-64
2023/01/15 09:46:53;;;;;;;1.35;0.85;;;;;;;-2.55;73.14;94212.66;4966614;28;20101;-65
2023/01/15 09:49:28;;;;;;;2.70;1.00;;;;;;;-2.47;70.10;94215.44;4969009;28;20530;-65
2023/01/15 09:51:56;;;;;;;4.45;2.85;;;;;;;-1.91;69.45;94212.41;4983473;28;20176;-65
2023/01/15 09:54:49;;;;;;;1.27;0.80;;;;;;;-1.54;69.19;94211.75;4983950;28;20157;-65
2023/01/15 09:57:14;;;;;;;1.85;1.10;;;;;;;-2.26;68.42;94243.22;4968954;28;20079;-65
2023/01/15 09:59:42;;;;;;;1.73;0.90;;;;;;;-2.05;70.77;94224.03;4969977;28;20087;-65
2023/01/15 10:02:15;;;;;;;1.88;1.00;;;;;;;-2.04;70.70;94231.75;4967913;28;20112;-65
2023/01/15 10:04:42;;;;;;;3.13;0.93;;;;;;;-2.43;71.59;94232.47;4981330;28;20155;-65
2023/01/15 10:07:17;;;;;;;1.50;1.00;;;;;;;-2.50;72.33;94237.38;4982266;28;20087;-65
2023/01/15 10:09:42;;;;;;;0.90;0.90;;;;;;;-1.99;69.85;94232.19;4967618;28;20061;-65
2023/01/15 10:12:34;;;;;;;3.15;0.90;;;;;;;-1.58;68.00;94231.25;4971902;28;20103;-65
2023/01/15 10:15:11;;;;;;;2.28;1.00;;;;;;;-2.07;71.04;94237.22;4969698;28;20936;-65
2023/01/15 10:17:58;;;;;;;5.60;1.45;;;;;;;-1.17;67.71;94230.28;4982333;28;20680;-65
2023/01/15 10:20:36;;;;;;;2.97;1.05;;;;;;;-2.29;70.05;94230.44;4970164;28;20094;-65
2023/01/15 10:23:27;;;;;;;1.15;0.90;;;;;;;-2.56;68.65;94221.41;4981556;28;20572;-65
2023/01/15 10:26:34;;;;;;;1.83;0.57;;;;;;;-1.19;67.48;94216.56;4982789;28;20569;-65
2023/01/15 10:29:25;;;;;;;2.05;0.90;;;;;;;-1.11;64.06;94220.09;4982073;28;20682;-65
2023/01/15 10:31:52;;;;;;;1.50;0.85;;;;;;;-1.06;66.83;94224.91;4969455;28;20334;-65
2023/01/15 10:34:23;;;;;;;2.78;1.02;;;;;;;-1.31;64.23;94226.31;4969237;28;20093;-65
2023/01/15 10:37:14;;;;;;;2.60;1.17;;;;;;;-1.10;65.95;94234.00;4981873;28;20438;-65
2023/01/15 10:39:47;;;;;;;4.82;1.15;;;;;;;-1.70;64.62;94245.41;4967860;28;20122;-65
2023/01/15 10:42:12;;;;;;;2.45;0.90;;;;;;;-0.40;62.77;94237.31;4969058;28;20503;-65
2023/01/15 10:44:43;;;;;;;1.60;0.73;;;;;;;-0.15;62.95;94232.34;4982099;28;20061;-65
2023/01/15 10:47:14;;;;;;;2.00;0.80;;;;;;;0.29;62.50;94231.72;4981479;28;20332;-65
2023/01/15 10:49:39;;;;;;;3.25;0.95;;;;;;;-0.08;63.20;94236.88;4955548;28;20398;-66
2023/01/15 10:52:11;;;;;;;2.60;0.98;;;;;;;-0.81;64.05;94238.41;4951976;28;20391;-66
2023/01/15 10:54:41;;;;;;;2.08;0.90;;;;;;;-0.30;63.88;94240.72;4949932;28;20114;-66
2023/01/15 10:57:13;;;;;;;4.03;1.20;;;;;;;-1.12;63.79;94246.38;4981689;28;20073;-66
2023/01/15 10:59:49;;;;;;;3.28;0.80;;;;;;;-0.76;63.71;94244.00;4986230;28;20069;-66
2023/01/15 11:02:40;;;;;;;2.25;1.33;;;;;;;-0.96;64.01;94246.66;4980904;28;20088;-65
2023/01/15 11:05:05;;;;;;;7.63;2.08;;;;;;;-2.40;67.28;94266.09;4980663;28;20443;-65
2023/01/15 11:07:39;;;;;;;4.28;2.10;;;;;;;-1.39;65.65;94256.53;4968938;28;20086;-65
2023/01/15 11:10:08;;;;;;;2.90;1.20;;;;;;;-1.86;67.83;94260.59;4967862;28;20086;-65
2023/01/15 11:21:11;;;;;;;3.47;1.33;;;;;;;-1.17;66.03;94246.78;4967381;28;20065;-65
2023/01/15 11:23:37;;;;;;;2.17;1.02;;;;;;;-1.89;66.12;94281.78;4981433;28;20132;-65
2023/01/15 11:26:02;;;;;;;3.47;1.77;;;;;;;-1.10;64.07;94260.13;4950931;28;20167;-65
2023/01/15 11:28:39;;;;;;;5.30;1.73;;;;;;;-1.59;64.86;94258.34;4964990;28;20053;-65
2023/01/15 11:31:06;;;;;;;4.90;1.33;;;;;;;-2.39;67.88;94246.03;4968063;28;20107;-65
2023/01/15 11:33:31;;;;;;;3.22;1.30;;;;;;;-1.70;65.97;94255.84;4965040;28;20078;-65
2023/01/15 11:36:00;;;;;;;1.98;1.05;;;;;;;-1.32;66.11;94228.13;4979128;28;20093;-65
2023/01/15 11:38:27;;;;;;;3.63;1.42;;;;;;;-1.54;64.46;94237.88;4981113;28;20184;-65
2023/01/15 11:40:58;;;;;;;5.40;0.98;;;;;;;-1.73;66.35;94236.06;4980463;28;20137;-65
2023/01/15 11:51:57;;;;;;;3.67;1.58;;;;;;;-0.13;61.33;94226.00;4979187;28;20196;-65
2023/01/15 11:54:23;;;;;;;5.57;1.30;;;;;;;-0.52;59.75;94232.25;4979726;28;20452;-66
2023/01/15 11:56:49;;;;;;;3.92;1.20;;;;;;;-0.31;61.05;94225.97;4981339;28;20063;-65
2023/01/15 11:59:16;;;;;;;3.20;1.20;;;;;;;-0.02;60.42;94222.41;4972773;28;20100;-65
2023/01/15 12:01:56;;;;;;;9.38;1.23;;;;;;;0.26;60.05;94229.38;4979863;28;20056;-65
2023/01/15 12:04:29;;;;;;;4.90;1.42;;;;;;;-0.91;61.22;94245.41;4978115;28;20519;-65
2023/01/15 12:06:54;;;;;;;4.30;1.17;;;;;;;-0.23;60.68;94236.53;4965098;28;20422;-65
2023/01/15 12:09:56;;;;;;;2.63;1.15;;;;;;;1.49;55.67;94223.47;4978640;28;20069;-65
2023/01/15 12:12:40;;;;;;;4.93;1.58;;;;;;;1.10;54.96;94224.69;4953809;28;20103;-65
2023/01/15 12:15:14;;;;;;;3.55;1.20;;;;;;;0.77;56.31;94219.22;4980356;28;20130;-66
2023/01/15 12:18:11;;;;;;;3.53;1.60;;;;;;;1.29;52.65;94237.78;4979229;28;20080;-65
2023/01/15 12:21:09;;;;;;;4.53;1.20;;;;;;;0.55;55.05;94236.22;4972466;28;20069;-66
2023/01/15 12:24:01;;;;;;;5.35;1.50;;;;;;;-0.64;58.70;94233.38;4975824;28;20096;-65
2023/01/15 12:26:31;;;;;;;5.03;1.40;;;;;;;-0.93;59.89;94263.84;4980336;28;20099;-66